Time;durP1;ratioP1;P1;durP2;ratioP2;P2;SDS_P1;SDS_P2;PMS_P1;PMS_P2;Temp;Humidity;BMP_temperature;BMP_pressure;BME280_temperature;BME280_humidity;BME280_pressure;Samples;Min_cycle;Max_cycle;Signal;HPM_P1;HPM_P2
2022/05/07 00:00:20;;;;;;;4.40;3.03;;;;;;;13.47;nan;102199.91;5016469;28;20064;-46
2022/05/07 00:02:45;;;;;;;3.47;2.65;;;;;;;13.75;nan;102256.56;5034647;28;20388;-44
2022/05/07 00:05:11;;;;;;;5.97;2.80;;;;;;;13.75;nan;102256.56;5034723;28;20033;-46
2022/05/07 00:07:36;;;;;;;6.75;3.00;;;;;;;13.43;nan;102190.28;5034501;28;20049;-46
2022/05/07 00:10:01;;;;;;;5.65;2.92;;;;;;;13.67;nan;102239.13;5034415;28;20033;-47
2022/05/07 00:12:27;;;;;;;5.93;2.88;;;;;;;13.39;nan;102184.22;5034438;28;20685;-44
2022/05/07 00:14:52;;;;;;;3.30;2.92;;;;;;;13.67;nan;102245.31;5034771;28;20037;-45
2022/05/07 00:20:01;;;;;;;3.17;2.72;;;;;;;13.58;nan;102237.56;5034793;28;20052;-51
2022/05/07 00:22:26;;;;;;;7.35;2.85;;;;;;;13.47;nan;102213.13;5034336;28;20038;-46
2022/05/07 00:24:52;;;;;;;4.57;2.80;;;;;;;13.51;nan;102223.59;5034146;28;20044;-45
2022/05/07 00:27:17;;;;;;;4.57;2.45;;;;;;;13.46;nan;102219.31;5034065;28;20041;-46
2022/05/07 00:29:43;;;;;;;5.95;2.90;;;;;;;13.43;nan;102209.69;5034003;28;20129;-47
2022/05/07 00:32:09;;;;;;;3.58;2.80;;;;;;;13.03;nan;102147.97;5034253;28;20041;-44
2022/05/07 00:34:35;;;;;;;4.72;2.92;;;;;;;12.99;nan;102155.09;5016358;28;20037;-47
2022/05/07 00:37:00;;;;;;;7.15;3.58;;;;;;;13.25;nan;102210.09;5034031;28;20037;-46
2022/05/07 00:39:25;;;;;;;6.03;3.10;;;;;;;13.22;nan;102204.00;5033771;28;20042;-45
2022/05/07 00:41:52;;;;;;;5.13;3.03;;;;;;;12.96;nan;102167.50;5034214;28;20453;-46
2022/05/07 00:44:17;;;;;;;9.88;3.72;;;;;;;13.04;nan;102185.88;5016163;28;20395;-46
2022/05/07 00:46:44;;;;;;;7.13;3.42;;;;;;;13.09;nan;102205.16;5034080;28;20057;-47
2022/05/07 00:49:10;;;;;;;4.95;3.83;;;;;;;13.04;nan;102202.59;5015974;28;20040;-45
2022/05/07 00:51:35;;;;;;;4.00;3.05;;;;;;;13.02;nan;102200.91;5034223;28;20120;-46
2022/05/07 00:54:10;;;;;;;5.25;3.70;;;;;;;12.97;nan;102206.25;5033667;28;20092;-47
2022/05/07 00:56:36;;;;;;;7.25;4.50;;;;;;;12.72;nan;102171.53;5016248;28;20029;-48
2022/05/07 00:59:03;;;;;;;7.57;4.60;;;;;;;12.95;nan;102206.31;5033909;28;20072;-50
2022/05/07 01:01:28;;;;;;;9.93;4.63;;;;;;;12.67;nan;102149.63;5016025;28;20029;-44
2022/05/07 01:03:54;;;;;;;12.48;4.68;;;;;;;12.96;nan;102200.09;5015970;28;20504;-45
2022/05/07 01:06:20;;;;;;;12.13;5.18;;;;;;;12.93;nan;102192.22;5033349;28;20492;-44
2022/05/07 01:08:47;;;;;;;11.23;5.72;;;;;;;12.91;nan;102194.03;5014998;28;20033;-44
2022/05/07 01:11:14;;;;;;;8.73;5.40;;;;;;;12.67;nan;102151.38;5015125;28;20033;-44
2022/05/07 01:13:41;;;;;;;12.30;6.13;;;;;;;12.60;nan;102133.94;5015168;28;20033;-47
2022/05/07 01:16:06;;;;;;;16.10;6.72;;;;;;;12.85;nan;102182.72;5015368;28;20030;-45
2022/05/07 01:18:31;;;;;;;13.52;6.82;;;;;;;12.81;nan;102187.19;5015555;28;20107;-47
2022/05/07 01:20:58;;;;;;;10.00;6.50;;;;;;;12.59;nan;102133.06;5033189;28;20048;-45
2022/05/07 01:23:24;;;;;;;13.23;7.05;;;;;;;12.82;nan;102182.78;5032877;28;20037;-45
2022/05/07 01:25:50;;;;;;;16.67;7.07;;;;;;;12.83;nan;102179.25;5033432;28;20499;-43
2022/05/07 01:28:15;;;;;;;13.95;7.38;;;;;;;12.58;nan;102136.59;5032950;28;20124;-44
2022/05/07 01:30:40;;;;;;;13.70;7.38;;;;;;;12.81;nan;102176.63;5033030;28;20029;-44
2022/05/07 01:33:06;;;;;;;16.65;8.60;;;;;;;12.70;nan;102157.47;5033122;28;20040;-45
2022/05/07 01:35:31;;;;;;;13.15;7.05;;;;;;;12.55;nan;102130.53;5033067;28;20120;-45
2022/05/07 01:37:56;;;;;;;15.07;7.32;;;;;;;12.81;nan;102165.22;5032990;28;20033;-45
2022/05/07 01:40:22;;;;;;;15.93;8.63;;;;;;;12.58;nan;102126.03;5032277;28;20038;-44
2022/05/07 01:42:47;;;;;;;17.88;8.85;;;;;;;12.81;nan;102168.69;5015191;28;20033;-47
2022/05/07 01:45:12;;;;;;;16.58;8.30;;;;;;;12.57;nan;102110.22;5014967;28;20164;-46
2022/05/07 01:50:22;;;;;;;16.20;8.50;;;;;;;12.57;nan;102100.53;5017839;28;20125;-45
2022/05/07 01:52:48;;;;;;;19.98;9.70;;;;;;;12.83;nan;102148.41;5015445;28;20052;-46
2022/05/07 01:55:13;;;;;;;18.38;9.63;;;;;;;12.89;nan;102150.94;5032765;28;20041;-48
2022/05/07 01:57:38;;;;;;;19.20;9.10;;;;;;;12.89;nan;102150.94;5032869;28;20037;-46
2022/05/07 02:00:04;;;;;;;15.48;8.73;;;;;;;12.57;nan;102097.00;5032690;28;20037;-44
2022/05/07 02:02:29;;;;;;;19.92;10.07;;;;;;;12.83;nan;102148.41;5032624;28;20076;-48
2022/05/07 02:04:55;;;;;;;17.10;9.40;;;;;;;12.52;nan;102097.09;5032377;28;20037;-45
2022/05/07 02:07:20;;;;;;;18.25;10.30;;;;;;;12.76;nan;102138.88;5032298;28;20034;-45
2022/05/07 02:09:45;;;;;;;19.80;10.90;;;;;;;12.50;nan;102096.25;5032530;28;20068;-46
2022/05/07 02:12:11;;;;;;;19.15;12.27;;;;;;;12.75;nan;102137.16;5031073;28;20029;-48
2022/05/07 02:14:36;;;;;;;19.08;10.88;;;;;;;12.75;nan;102141.56;5032378;28;20041;-45
2022/05/07 02:17:02;;;;;;;22.30;11.65;;;;;;;12.73;nan;102132.75;5032376;28;20068;-45
2022/05/07 02:19:27;;;;;;;22.63;12.20;;;;;;;12.55;nan;102114.69;5032161;28;20037;-47
2022/05/07 02:21:53;;;;;;;24.55;12.70;;;;;;;12.60;nan;102128.66;5031830;28;20357;-50
2022/05/07 02:24:18;;;;;;;21.90;11.80;;;;;;;12.43;nan;102094.66;5031967;28;20038;-46
2022/05/07 02:26:43;;;;;;;18.00;11.68;;;;;;;12.67;nan;102133.75;5030746;28;20069;-43
2022/05/07 02:29:14;;;;;;;21.60;11.70;;;;;;;12.66;nan;102137.31;5031977;28;20473;-46
2022/05/07 02:31:40;;;;;;;22.55;13.07;;;;;;;12.35;nan;102078.97;5032034;28;20477;-45
2022/05/07 02:34:05;;;;;;;18.98;12.68;;;;;;;12.33;nan;102082.53;5014141;28;20036;-45
2022/05/07 02:36:32;;;;;;;22.25;13.50;;;;;;;12.59;nan;102133.06;5031937;28;20042;-51
2022/05/07 02:38:58;;;;;;;24.80;13.70;;;;;;;12.65;nan;102145.25;5032242;28;20072;-45
2022/05/07 02:44:07;;;;;;;22.92;13.27;;;;;;;12.29;nan;102087.00;5032090;28;20219;-46
2022/05/07 02:46:32;;;;;;;24.27;15.32;;;;;;;12.24;nan;102080.94;5013640;28;20189;-45
2022/05/07 02:48:58;;;;;;;21.08;13.65;;;;;;;12.36;nan;102117.66;5031778;28;20163;-44
2022/05/07 02:51:23;;;;;;;25.80;14.75;;;;;;;12.53;nan;102141.09;5031782;28;20064;-46
2022/05/07 02:53:49;;;;;;;26.25;13.60;;;;;;;12.33;nan;102104.53;5031608;28;20032;-44
2022/05/07 02:56:14;;;;;;;25.52;14.77;;;;;;;12.57;nan;102147.19;5031438;28;20445;-45
2022/05/07 02:58:39;;;;;;;30.13;15.15;;;;;;;12.56;nan;102153.38;5031565;28;20025;-47
2022/05/07 03:01:04;;;;;;;24.20;14.93;;;;;;;12.36;nan;102119.44;5031396;28;20037;-47
2022/05/07 03:03:30;;;;;;;28.90;14.73;;;;;;;12.55;nan;102159.56;5031184;28;20044;-48
2022/05/07 03:05:58;;;;;;;29.02;13.75;;;;;;;12.19;nan;102087.22;5030335;28;20033;-49
2022/05/07 03:08:23;;;;;;;25.90;15.40;;;;;;;12.16;nan;102088.16;5031407;28;20037;-47
2022/05/07 03:10:49;;;;;;;31.23;16.27;;;;;;;12.29;nan;102102.84;5030140;28;20503;-46
2022/05/07 03:13:15;;;;;;;29.83;15.85;;;;;;;12.53;nan;102145.50;5031073;28;20041;-51
2022/05/07 03:15:40;;;;;;;27.13;15.73;;;;;;;12.55;nan;102138.44;5031381;28;20033;-48
2022/05/07 03:18:05;;;;;;;25.70;16.17;;;;;;;12.57;nan;102141.91;5031415;28;20029;-47
2022/05/07 03:20:30;;;;;;;25.58;16.42;;;;;;;12.25;nan;102082.69;5031554;28;20480;-47
2022/05/07 03:22:56;;;;;;;28.48;16.73;;;;;;;12.55;nan;102135.81;5031216;28;20388;-47
2022/05/07 03:25:21;;;;;;;25.15;15.32;;;;;;;12.28;nan;102100.25;5031218;28;20061;-48
2022/05/07 03:27:46;;;;;;;27.05;17.70;;;;;;;12.53;nan;102143.75;5031349;28;20030;-45
2022/05/07 03:30:12;;;;;;;30.80;16.77;;;;;;;12.52;nan;102141.16;5030999;28;20519;-46
2022/05/07 03:32:37;;;;;;;30.98;16.45;;;;;;;12.18;nan;102096.91;5032106;28;20044;-49
2022/05/07 03:35:03;;;;;;;23.75;15.57;;;;;;;12.10;nan;102092.66;5035398;28;20438;-44
2022/05/07 03:37:28;;;;;;;29.42;15.98;;;;;;;12.40;nan;102147.53;5033741;28;20467;-49
2022/05/07 03:39:54;;;;;;;30.83;15.68;;;;;;;12.06;nan;102098.88;5035473;28;20034;-47
2022/05/07 03:42:20;;;;;;;30.67;16.83;;;;;;;12.32;nan;102152.94;5017405;28;20038;-45
2022/05/07 03:44:46;;;;;;;28.52;16.27;;;;;;;12.01;nan;102100.75;5035230;28;20085;-46
2022/05/07 03:47:12;;;;;;;31.10;16.40;;;;;;;12.24;nan;102152.22;5034828;28;20057;-45
2022/05/07 03:49:37;;;;;;;27.88;17.48;;;;;;;12.22;nan;102145.22;5035282;28;20037;-47
2022/05/07 03:54:47;;;;;;;28.20;16.30;;;;;;;12.23;nan;102150.47;5035145;28;20052;-48
2022/05/07 03:57:13;;;;;;;27.13;16.58;;;;;;;11.93;nan;102100.91;5034919;28;20037;-48
2022/05/07 03:59:39;;;;;;;31.80;17.02;;;;;;;11.99;nan;102118.38;5035021;28;20053;-48
2022/05/07 04:02:04;;;;;;;26.20;18.15;;;;;;;12.21;nan;102154.91;5034990;28;20481;-46
2022/05/07 04:04:30;;;;;;;28.02;17.13;;;;;;;11.88;nan;102096.59;5017233;28;20025;-48
2022/05/07 04:06:55;;;;;;;32.13;17.67;;;;;;;12.21;nan;102162.84;5000515;28;20068;-49
2022/05/07 04:09:20;;;;;;;34.65;17.70;;;;;;;12.21;nan;102165.47;5034627;28;20045;-48
2022/05/07 04:11:46;;;;;;;30.63;16.30;;;;;;;11.97;nan;102118.41;5033377;28;20041;-45
2022/05/07 04:14:11;;;;;;;30.40;17.83;;;;;;;12.24;nan;102162.78;5034245;28;20043;-45
2022/05/07 04:16:36;;;;;;;31.98;16.48;;;;;;;12.25;nan;102169.81;5034519;28;20087;-47
2022/05/07 04:19:02;;;;;;;33.00;17.73;;;;;;;11.64;nan;102067.09;5036791;28;20209;-45
2022/05/07 04:21:27;;;;;;;29.33;16.15;;;;;;;11.74;nan;102091.56;5035012;28;20075;-50
2022/05/07 04:23:52;;;;;;;31.58;18.00;;;;;;;12.28;nan;102177.69;5034546;28;20041;-45
2022/05/07 04:26:18;;;;;;;26.80;16.73;;;;;;;12.27;nan;102175.06;5034156;28;20471;-46
2022/05/07 04:28:43;;;;;;;31.60;18.38;;;;;;;12.26;nan;102170.66;5016460;28;20041;-48
2022/05/07 04:31:08;;;;;;;28.77;16.23;;;;;;;12.16;nan;102156.78;5016399;28;20037;-45
2022/05/07 04:33:33;;;;;;;35.83;17.15;;;;;;;12.30;nan;102188.19;5033926;28;20112;-46
2022/05/07 04:35:59;;;;;;;32.22;17.00;;;;;;;12.34;nan;102172.28;5032878;28;20042;-47
2022/05/07 04:38:24;;;;;;;34.25;17.90;;;;;;;12.04;nan;102114.75;5016138;28;20377;-49
2022/05/07 04:40:49;;;;;;;34.58;19.65;;;;;;;12.08;nan;102116.47;5033992;28;20050;-47
2022/05/07 04:43:18;;;;;;;29.50;19.92;;;;;;;12.38;nan;102166.03;5015931;28;20033;-47
2022/05/07 04:45:43;;;;;;;33.10;20.40;;;;;;;12.13;nan;102117.25;5033523;28;20432;-49
2022/05/07 04:48:09;;;;;;;38.45;22.00;;;;;;;12.12;nan;102120.78;5033888;28;20053;-47
2022/05/07 04:50:34;;;;;;;36.65;21.83;;;;;;;12.47;nan;102183.47;5033756;28;20163;-48
2022/05/07 04:52:59;;;;;;;36.72;21.05;;;;;;;12.50;nan;102180.78;5033432;28;20033;-46
2022/05/07 04:55:25;;;;;;;34.05;20.65;;;;;;;12.21;nan;102125.88;5015740;28;20119;-51
2022/05/07 04:57:50;;;;;;;39.35;21.50;;;;;;;12.55;nan;102175.41;5032249;28;20049;-45
2022/05/07 05:00:16;;;;;;;33.30;22.10;;;;;;;12.55;nan;102176.25;5033656;28;20093;-46
2022/05/07 05:02:42;;;;;;;29.02;21.13;;;;;;;12.57;nan;102177.13;5033582;28;20040;-50
2022/05/07 05:05:07;;;;;;;35.35;21.65;;;;;;;12.57;nan;102182.41;5033337;28;20416;-47
2022/05/07 05:07:33;;;;;;;38.80;23.23;;;;;;;12.61;nan;102185.88;5015741;28;20030;-46
2022/05/07 05:09:59;;;;;;;32.78;20.52;;;;;;;12.43;nan;102155.41;5015604;28;20033;-47
2022/05/07 05:12:24;;;;;;;35.70;21.23;;;;;;;12.65;nan;102191.06;5033125;28;20607;-48
2022/05/07 05:15:01;;;;;;;36.50;21.90;;;;;;;12.69;nan;102199.78;5033280;28;20042;-44
2022/05/07 05:17:27;;;;;;;31.73;20.92;;;;;;;12.75;nan;102197.03;5033243;28;20374;-47
2022/05/07 05:19:53;;;;;;;39.60;23.25;;;;;;;12.51;nan;102142.91;5033356;28;20044;-48
2022/05/07 05:22:18;;;;;;;37.17;21.63;;;;;;;12.87;nan;102199.44;5033045;28;20069;-47
2022/05/07 05:24:43;;;;;;;34.17;22.17;;;;;;;12.99;nan;102205.31;5015481;28;20034;-46
2022/05/07 05:27:09;;;;;;;32.33;21.10;;;;;;;13.09;nan;102208.69;5033065;28;20060;-44
2022/05/07 05:29:34;;;;;;;36.65;21.08;;;;;;;13.18;nan;102210.25;5033159;28;20079;-48
2022/05/07 05:31:59;;;;;;;32.03;20.83;;;;;;;13.05;nan;102177.03;5032971;28;20045;-46
2022/05/07 05:34:25;;;;;;;30.15;20.13;;;;;;;13.37;nan;102228.34;5032907;28;20112;-45
2022/05/07 05:36:51;;;;;;;33.17;20.58;;;;;;;13.43;nan;102222.91;5032823;28;20045;-53
2022/05/07 05:39:16;;;;;;;34.63;22.05;;;;;;;13.51;nan;102225.41;5032653;28;20088;-44
2022/05/07 05:41:44;;;;;;;32.17;20.33;;;;;;;13.34;nan;102188.72;5032763;28;20041;-51
2022/05/07 05:44:09;;;;;;;30.85;20.83;;;;;;;13.50;nan;102208.66;5032921;28;20037;-52
2022/05/07 05:46:35;;;;;;;31.17;21.20;;;;;;;13.71;nan;102228.47;5032854;28;20034;-45
2022/05/07 05:49:00;;;;;;;30.10;20.85;;;;;;;13.45;nan;102173.50;5032346;28;20050;-48
2022/05/07 05:51:25;;;;;;;34.10;18.77;;;;;;;13.75;nan;102224.81;5032545;28;20046;-49
2022/05/07 05:53:51;;;;;;;26.88;20.17;;;;;;;13.84;nan;102224.59;5032275;28;20084;-48
2022/05/07 05:56:16;;;;;;;31.00;19.75;;;;;;;13.92;nan;102227.94;5031410;28;20036;-48
2022/05/07 05:58:41;;;;;;;30.15;19.65;;;;;;;14.02;nan;102225.94;5032439;28;20045;-52
2022/05/07 06:01:07;;;;;;;29.67;20.27;;;;;;;14.01;nan;102203.88;5032392;28;20065;-51
2022/05/07 06:03:33;;;;;;;27.40;18.05;;;;;;;14.24;nan;102226.28;5032596;28;20464;-48
2022/05/07 06:05:59;;;;;;;26.88;18.15;;;;;;;14.33;nan;102232.22;5032224;28;20034;-49
2022/05/07 06:08:24;;;;;;;27.52;19.05;;;;;;;14.41;nan;102238.22;5032454;28;20102;-46
2022/05/07 06:10:54;;;;;;;28.30;18.48;;;;;;;14.53;nan;102244.97;5032357;28;20030;-49
2022/05/07 06:13:20;;;;;;;29.60;18.27;;;;;;;14.34;nan;102191.59;5032309;28;20155;-48
2022/05/07 06:15:49;;;;;;;26.35;17.77;;;;;;;14.76;nan;102247.88;5032349;28;20125;-45
2022/05/07 06:18:14;;;;;;;28.23;19.63;;;;;;;14.63;nan;102196.97;5032108;28;20025;-45
2022/05/07 06:20:39;;;;;;;25.30;18.25;;;;;;;15.06;nan;102254.09;5031974;28;20030;-48
2022/05/07 06:23:05;;;;;;;24.08;17.35;;;;;;;14.99;nan;102236.63;5031753;28;20041;-46
2022/05/07 06:28:14;;;;;;;22.55;16.65;;;;;;;15.14;nan;102260.06;5032206;28;20048;-46
2022/05/07 06:30:40;;;;;;;24.40;16.17;;;;;;;15.23;nan;102265.94;5031886;28;20037;-48
2022/05/07 06:33:05;;;;;;;25.63;16.27;;;;;;;15.38;nan;102264.63;5031617;28;20037;-47
2022/05/07 06:35:30;;;;;;;21.50;16.73;;;;;;;15.13;nan;102221.16;5031561;28;20033;-46
2022/05/07 06:37:56;;;;;;;20.63;15.43;;;;;;;15.40;nan;102267.25;5031636;28;20038;-47
2022/05/07 06:40:21;;;;;;;24.25;14.85;;;;;;;15.13;nan;102221.16;5031703;28;20037;-48
2022/05/07 06:42:47;;;;;;;21.67;14.60;;;;;;;15.29;nan;102218.94;5031845;28;20025;-46
2022/05/07 06:45:12;;;;;;;23.92;15.23;;;;;;;15.78;nan;102264.31;5031738;28;20033;-46
2022/05/07 06:47:38;;;;;;;21.92;15.07;;;;;;;15.92;nan;102259.44;5031720;28;20591;-45
2022/05/07 06:50:04;;;;;;;22.17;14.68;;;;;;;16.24;nan;102275.19;5030596;28;20492;-46
2022/05/07 06:52:30;;;;;;;23.60;14.95;;;;;;;16.53;nan;102273.34;5031585;28;20083;-50
2022/05/07 06:54:55;;;;;;;21.33;14.52;;;;;;;16.89;nan;102277.41;5032060;28;20416;-46
2022/05/07 06:57:23;;;;;;;18.27;13.35;;;;;;;17.25;nan;102281.38;5031709;28;20102;-47
2022/05/07 06:59:48;;;;;;;21.73;13.40;;;;;;;17.41;nan;102252.41;5013760;28;20499;-47
2022/05/07 07:02:13;;;;;;;17.45;11.48;;;;;;;18.03;nan;102281.94;5031525;28;20030;-50
2022/05/07 07:04:39;;;;;;;16.73;12.80;;;;;;;18.34;nan;102293.06;5030203;28;20381;-46
2022/05/07 07:07:05;;;;;;;15.80;11.85;;;;;;;18.69;nan;102302.25;5013477;28;20554;-47
2022/05/07 07:09:30;;;;;;;13.30;10.30;;;;;;;18.63;nan;102312.31;5031479;28;20396;-47
2022/05/07 07:11:56;;;;;;;17.33;10.90;;;;;;;18.49;nan;102312.91;5031643;28;20037;-43
2022/05/07 07:14:21;;;;;;;20.60;12.55;;;;;;;18.11;nan;102308.25;5031273;28;20037;-49
2022/05/07 07:16:47;;;;;;;14.90;11.93;;;;;;;17.63;nan;102263.13;5013881;28;20037;-45
2022/05/07 07:19:15;;;;;;;16.20;11.55;;;;;;;17.68;nan;102298.44;5013572;28;20026;-45
2022/05/07 07:21:41;;;;;;;16.60;11.80;;;;;;;17.56;nan;102302.44;5030060;28;20060;-45
2022/05/07 07:24:07;;;;;;;17.23;12.02;;;;;;;17.38;nan;102306.63;5031240;28;20116;-48
2022/05/07 07:26:32;;;;;;;19.90;11.98;;;;;;;17.62;nan;102299.53;5014037;28;20033;-47
2022/05/07 07:28:57;;;;;;;17.05;12.35;;;;;;;18.07;nan;102302.16;5031445;28;20069;-47
2022/05/07 07:31:22;;;;;;;16.58;12.90;;;;;;;18.61;nan;102306.19;5031595;28;20148;-45
2022/05/07 07:33:48;;;;;;;19.13;12.13;;;;;;;19.15;nan;102314.44;5031212;28;20128;-51
2022/05/07 07:36:13;;;;;;;16.08;11.75;;;;;;;19.49;nan;102268.44;5013524;28;20059;-46
2022/05/07 07:38:38;;;;;;;17.05;11.43;;;;;;;;;;5013870;28;20041;-47
2022/05/07 07:41:04;;;;;;;18.50;12.20;;;;;;;20.29;nan;102326.00;5031493;28;20072;-49
2022/05/07 07:43:30;;;;;;;20.45;13.40;;;;;;;;;;5031166;28;20785;-45
2022/05/07 07:48:39;;;;;;;16.80;12.52;;;;;;;;;;5031155;28;20052;-45
2022/05/07 07:51:04;;;;;;;18.67;13.45;;;;;;;;;;5031093;28;20037;-48
2022/05/07 07:53:30;;;;;;;18.10;12.95;;;;;;;;;;5031011;28;20052;-49
2022/05/07 07:55:55;;;;;;;16.20;12.97;;;;;;;;;;5030675;28;20033;-47
2022/05/07 07:58:20;;;;;;;16.23;12.53;;;;;;;;;;5030670;28;20128;-45
2022/05/07 08:00:45;;;;;;;21.42;13.68;;;;;;;;;;5031040;28;20291;-46
2022/05/07 08:03:12;;;;;;;17.67;13.00;;;;;;;;;;5030806;28;20041;-46
2022/05/07 08:05:37;;;;;;;15.85;12.13;;;;;;;;;;5030534;28;20117;-46
2022/05/07 08:13:33;;;;;;;17.65;12.20;;;;;;;;;;5030890;28;20455;-46
2022/05/07 08:15:58;;;;;;;15.52;12.15;;;;;;;;;;5030772;28;20087;-47
2022/05/07 08:18:23;;;;;;;16.83;12.77;;;;;;;;;;5030883;28;20041;-45
2022/05/07 08:20:49;;;;;;;13.90;11.87;;;;;;;;;;5033419;28;20366;-45
2022/05/07 08:23:14;;;;;;;17.03;12.23;;;;;;;;;;5034196;28;20116;-46
2022/05/07 08:25:39;;;;;;;14.60;11.37;;;;;;;;;;5016545;28;20311;-46
2022/05/07 08:28:05;;;;;;;15.60;11.13;;;;;;;22.67;nan;102319.25;5034193;28;20488;-51
2022/05/07 08:30:30;;;;;;;15.43;10.82;;;;;;;23.08;nan;102353.47;5016489;28;20328;-50
2022/05/07 08:32:56;;;;;;;12.93;11.07;;;;;;;23.55;nan;102345.19;5016579;28;20479;-49
2022/05/07 08:35:22;;;;;;;16.02;11.90;;;;;;;23.68;nan;102379.25;5016442;28;20069;-45
2022/05/07 08:37:47;;;;;;;14.98;10.50;;;;;;;23.31;nan;102387.84;5034164;28;20120;-46
2022/05/07 08:40:16;;;;;;;14.02;11.00;;;;;;;23.18;nan;102382.34;5033879;28;20583;-45
2022/05/07 08:42:42;;;;;;;14.68;10.40;;;;;;;23.67;nan;102377.50;5016841;28;20064;-48
2022/05/07 08:45:08;;;;;;;15.32;11.25;;;;;;;23.03;nan;102337.63;5033999;28;20060;-50
2022/05/07 08:47:33;;;;;;;13.48;11.48;;;;;;;23.60;nan;102375.31;5033926;28;20029;-44
2022/05/07 08:49:59;;;;;;;14.82;11.48;;;;;;;23.15;nan;102378.97;5034169;28;20045;-50
2022/05/07 08:52:26;;;;;;;15.50;11.73;;;;;;;23.09;nan;102331.88;5016194;28;20057;-46
2022/05/07 08:54:52;;;;;;;15.80;12.18;;;;;;;23.94;nan;102399.13;5015971;28;20033;-49
2022/05/07 08:57:17;;;;;;;12.75;11.40;;;;;;;23.80;nan;102391.94;5033678;28;20378;-45
2022/05/07 08:59:43;;;;;;;15.68;11.55;;;;;;;24.05;nan;102361.66;5033802;28;20060;-48
2022/05/07 09:02:09;;;;;;;19.20;12.65;;;;;;;23.73;nan;102363.69;5033771;28;20128;-44
2022/05/07 09:04:36;;;;;;;16.40;13.10;;;;;;;24.37;nan;102399.94;5033794;28;20041;-43
2022/05/07 09:07:03;;;;;;;15.93;11.98;;;;;;;24.70;nan;102395.00;5033390;28;20477;-46
2022/05/07 09:09:31;;;;;;;14.30;10.85;;;;;;;24.90;nan;102408.00;5033613;28;20120;-47
2022/05/07 09:11:57;;;;;;;16.63;12.77;;;;;;;24.14;nan;102396.03;5033621;28;20107;-45
2022/05/07 09:14:30;;;;;;;16.58;13.05;;;;;;;24.88;nan;102409.97;5033806;28;20441;-47
2022/05/07 09:16:58;;;;;;;15.38;11.85;;;;;;;25.09;nan;102415.72;5033917;28;20029;-43
2022/05/07 09:19:27;;;;;;;16.25;12.48;;;;;;;25.35;nan;102411.22;5033267;28;20079;-44
2022/05/07 09:22:03;;;;;;;15.52;12.57;;;;;;;25.62;nan;102415.59;5015912;28;20434;-46
2022/05/07 09:24:28;;;;;;;16.85;13.10;;;;;;;25.27;nan;102409.06;5033184;28;20045;-48
2022/05/07 09:26:56;;;;;;;15.00;12.77;;;;;;;24.61;nan;102422.53;5015158;28;20124;-45
2022/05/07 09:29:26;;;;;;;17.80;13.38;;;;;;;24.26;nan;102408.69;5033097;28;20121;-46
2022/05/07 09:31:53;;;;;;;13.13;10.83;;;;;;;24.67;nan;102394.34;5031597;28;20037;-48
2022/05/07 09:37:23;;;;;;;16.85;12.23;;;;;;;26.13;nan;102410.09;5032862;28;20072;-46
2022/05/07 09:39:52;;;;;;;16.20;11.63;;;;;;;26.44;nan;102412.31;5033039;28;20045;-44
2022/05/07 09:42:21;;;;;;;15.02;11.23;;;;;;;26.16;nan;102418.88;5032927;28;20042;-48
2022/05/07 09:44:47;;;;;;;15.40;11.93;;;;;;;26.02;nan;102418.13;5032890;28;20453;-44
2022/05/07 09:47:13;;;;;;;17.40;12.82;;;;;;;25.56;nan;102372.00;5032422;28;20338;-47
2022/05/07 09:50:19;;;;;;;13.32;11.88;;;;;;;24.66;nan;102417.72;5032535;28;20095;-46
2022/05/07 09:52:27;;;;;;;15.57;12.77;;;;;;;24.32;nan;102411.00;5017737;28;20049;-49
2022/05/07 09:57:38;;;;;;;15.20;12.48;;;;;;;25.56;nan;102410.63;5017601;28;20100;-47
2022/05/07 10:00:08;;;;;;;17.30;13.05;;;;;;;25.58;nan;102415.91;5031161;28;20041;-48
2022/05/07 10:02:48;;;;;;;18.00;13.43;;;;;;;25.72;nan;102413.94;5031794;28;20033;-48
2022/05/07 10:05:51;;;;;;;16.30;13.15;;;;;;;25.15;nan;102418.88;5013645;28;20488;-46
2022/05/07 10:08:33;;;;;;;19.30;15.35;;;;;;;25.00;nan;102419.91;5031726;28;20022;-50
2022/05/07 10:10:59;;;;;;;18.55;14.35;;;;;;;23.71;nan;102378.19;5014368;28;20380;-46
2022/05/07 10:13:24;;;;;;;17.95;15.15;;;;;;;23.96;nan;102416.03;5014555;28;20046;-45
2022/05/07 10:16:03;;;;;;;18.30;13.43;;;;;;;24.01;nan;102411.22;5014651;28;20048;-46
2022/05/07 10:18:41;;;;;;;16.45;13.63;;;;;;;23.90;nan;102417.28;5032209;28;20099;-47
2022/05/07 10:21:14;;;;;;;19.58;15.00;;;;;;;22.97;nan;102381.81;5015112;28;20034;-51
2022/05/07 10:23:52;;;;;;;21.80;15.02;;;;;;;22.46;nan;102424.25;5032377;28;20086;-47
2022/05/07 10:26:18;;;;;;;18.65;14.73;;;;;;;22.56;nan;102420.97;5032095;28;20225;-46
2022/05/07 10:28:44;;;;;;;19.88;14.77;;;;;;;22.03;nan;102359.63;5030868;28;20037;-49
2022/05/07 10:31:44;;;;;;;22.15;14.93;;;;;;;22.34;nan;102412.38;5031865;28;20025;-47
2022/05/07 10:34:10;;;;;;;19.83;15.18;;;;;;;23.04;nan;102411.00;5031991;28;20125;-48
2022/05/07 10:36:35;;;;;;;19.73;15.52;;;;;;;23.92;nan;102380.41;5014097;28;20095;-47
2022/05/07 10:39:08;;;;;;;20.52;15.55;;;;;;;24.74;nan;102423.47;5031909;28;20036;-46
2022/05/07 10:41:33;;;;;;;18.30;15.43;;;;;;;25.05;nan;102371.94;5031747;28;20358;-47
2022/05/07 10:44:04;;;;;;;22.63;15.93;;;;;;;24.69;nan;102366.38;5031124;28;20040;-47
2022/05/07 10:46:43;;;;;;;17.38;13.80;;;;;;;24.52;nan;102417.75;5014359;28;20037;-49
2022/05/07 10:49:09;;;;;;;19.73;15.27;;;;;;;24.94;nan;102414.06;5013940;28;20037;-47
2022/05/07 10:51:40;;;;;;;19.85;14.20;;;;;;;24.95;nan;102368.19;5031767;28;20037;-48
2022/05/07 10:54:22;;;;;;;18.30;14.10;;;;;;;25.78;nan;102409.06;5013429;28;20481;-46
2022/05/07 10:56:52;;;;;;;17.88;15.60;;;;;;;25.58;nan;102395.19;5014496;28;20040;-48
2022/05/07 10:59:18;;;;;;;20.60;15.10;;;;;;;25.51;nan;102436.19;5014061;28;20112;-48
2022/05/07 11:01:43;;;;;;;21.95;15.30;;;;;;;25.86;nan;102434.53;5030915;28;20504;-50
2022/05/07 11:04:12;;;;;;;18.27;14.65;;;;;;;25.18;nan;102347.72;5013570;28;20033;-48
2022/05/07 11:06:43;;;;;;;18.25;14.10;;;;;;;26.10;nan;102432.78;5030109;28;20061;-48
2022/05/07 11:09:15;;;;;;;20.15;15.23;;;;;;;26.16;nan;102436.91;5031054;28;20053;-51
2022/05/07 11:11:46;;;;;;;17.02;13.20;;;;;;;26.29;nan;102429.63;5031907;28;20067;-50
2022/05/07 11:14:25;;;;;;;16.42;12.48;;;;;;;25.51;nan;102438.88;5013892;28;20025;-49
2022/05/07 11:16:52;;;;;;;15.88;13.15;;;;;;;26.29;nan;102432.34;5031827;28;20039;-49
2022/05/07 11:19:28;;;;;;;16.92;12.60;;;;;;;26.57;nan;102385.22;5030075;28;20061;-45
2022/05/07 11:21:55;;;;;;;14.48;11.82;;;;;;;26.26;nan;102429.88;5014190;28;20053;-48
2022/05/07 11:24:21;;;;;;;17.30;12.68;;;;;;;26.84;nan;102399.41;5031241;28;20084;-45
2022/05/07 11:26:54;;;;;;;17.92;13.55;;;;;;;26.50;nan;102425.38;5031559;28;20041;-50
2022/05/07 11:29:20;;;;;;;19.08;14.55;;;;;;;27.08;nan;102378.59;5030585;28;20484;-46
2022/05/07 11:32:07;;;;;;;20.58;15.40;;;;;;;27.66;nan;102436.25;5031244;28;20113;-49
2022/05/07 11:34:33;;;;;;;18.67;14.82;;;;;;;26.95;nan;102437.25;5031173;28;20162;-50
2022/05/07 11:37:21;;;;;;;22.63;16.23;;;;;;;27.29;nan;102422.88;5031132;28;20053;-45
2022/05/07 11:39:56;;;;;;;18.75;16.17;;;;;;;27.27;nan;102430.25;5031114;28;20018;-46
2022/05/07 11:42:28;;;;;;;19.45;15.85;;;;;;;26.22;nan;102437.31;5031352;28;20564;-47
2022/05/07 11:47:38;;;;;;;17.70;14.98;;;;;;;26.16;nan;102428.78;5031303;28;20056;-49
2022/05/07 11:50:07;;;;;;;17.92;16.02;;;;;;;25.85;nan;102426.56;5013637;28;20041;-50
2022/05/07 11:52:32;;;;;;;22.17;15.60;;;;;;;26.16;nan;102426.97;5013336;28;20030;-49
2022/05/07 11:55:03;;;;;;;16.25;14.07;;;;;;;26.28;nan;102438.69;5032547;28;20453;-53
2022/05/07 11:57:29;;;;;;;;;;;;;;;26.98;nan;102433.47;5035462;28;20064;-47
2022/05/07 11:59:55;;;;;;;15.73;12.48;;;;;;;26.35;nan;102388.69;5034936;28;20396;-49
2022/05/07 12:02:21;;;;;;;19.90;14.10;;;;;;;26.80;nan;102381.69;5034880;28;20133;-48
2022/05/07 12:04:56;;;;;;;17.88;13.63;;;;;;;27.04;nan;102390.63;5016927;28;20402;-51